sensor_id;sensor_type;location;lat;lon;timestamp;P1;durP1;ratioP1;P2;durP2;ratioP2
70450;SDS011;58869;51.982;4.450;2023-04-03T00:00:34;2.24;;;2.22;;
70450;SDS011;58869;51.982;4.450;2023-04-03T00:02:59;2.31;;;2.30;;
70450;SDS011;58869;51.982;4.450;2023-04-03T00:05:25;2.38;;;2.36;;
70450;SDS011;58869;51.982;4.450;2023-04-03T00:07:51;2.39;;;2.35;;
70450;SDS011;58869;51.982;4.450;2023-04-03T00:10:16;2.37;;;2.33;;
70450;SDS011;58869;51.982;4.450;2023-04-03T00:12:42;2.32;;;2.30;;
70450;SDS011;58869;51.982;4.450;2023-04-03T00:15:07;2.36;;;2.35;;
70450;SDS011;58869;51.982;4.450;2023-04-03T00:17:33;2.37;;;2.36;;
70450;SDS011;58869;51.982;4.450;2023-04-03T00:19:59;2.34;;;2.34;;
70450;SDS011;58869;51.982;4.450;2023-04-03T00:22:24;2.42;;;2.41;;
70450;SDS011;58869;51.982;4.450;2023-04-03T00:24:51;2.55;;;2.53;;
70450;SDS011;58869;51.982;4.450;2023-04-03T00:27:17;2.50;;;2.48;;
70450;SDS011;58869;51.982;4.450;2023-04-03T00:29:42;2.42;;;2.41;;
70450;SDS011;58869;51.982;4.450;2023-04-03T00:32:08;2.46;;;2.46;;
70450;SDS011;58869;51.982;4.450;2023-04-03T00:34:33;2.39;;;2.37;;
70450;SDS011;58869;51.982;4.450;2023-04-03T00:36:58;2.23;;;2.22;;
70450;SDS011;58869;51.982;4.450;2023-04-03T00:39:24;2.59;;;2.58;;
70450;SDS011;58869;51.982;4.450;2023-04-03T00:41:49;2.70;;;2.69;;
70450;SDS011;58869;51.982;4.450;2023-04-03T00:47:08;2.51;;;2.51;;
70450;SDS011;58869;51.982;4.450;2023-04-03T00:49:36;2.53;;;2.53;;
70450;SDS011;58869;51.982;4.450;2023-04-03T00:52:03;2.65;;;2.65;;
70450;SDS011;58869;51.982;4.450;2023-04-03T00:54:31;2.61;;;2.61;;
70450;SDS011;58869;51.982;4.450;2023-04-03T00:56:57;2.82;;;2.81;;
70450;SDS011;58869;51.982;4.450;2023-04-03T00:59:24;2.49;;;2.49;;
70450;SDS011;58869;51.982;4.450;2023-04-03T01:01:55;2.52;;;2.52;;
70450;SDS011;58869;51.982;4.450;2023-04-03T01:04:30;2.56;;;2.56;;
70450;SDS011;58869;51.982;4.450;2023-04-03T01:07:05;2.53;;;2.52;;
70450;SDS011;58869;51.982;4.450;2023-04-03T01:09:32;2.62;;;2.61;;
70450;SDS011;58869;51.982;4.450;2023-04-03T01:14:51;2.69;;;2.68;;
70450;SDS011;58869;51.982;4.450;2023-04-03T01:25:43;2.61;;;2.61;;
70450;SDS011;58869;51.982;4.450;2023-04-03T01:28:12;2.50;;;2.50;;
70450;SDS011;58869;51.982;4.450;2023-04-03T01:31:23;2.59;;;2.59;;
70450;SDS011;58869;51.982;4.450;2023-04-03T01:33:41;2.66;;;2.66;;
70450;SDS011;58869;51.982;4.450;2023-04-03T01:36:08;2.50;;;2.50;;
70450;SDS011;58869;51.982;4.450;2023-04-03T01:38:34;2.59;;;2.59;;
70450;SDS011;58869;51.982;4.450;2023-04-03T01:41:00;2.61;;;2.60;;
70450;SDS011;58869;51.982;4.450;2023-04-03T01:43:28;2.48;;;2.46;;
70450;SDS011;58869;51.982;4.450;2023-04-03T01:45:54;2.61;;;2.58;;
70450;SDS011;58869;51.982;4.450;2023-04-03T01:48:20;2.82;;;2.80;;
70450;SDS011;58869;51.982;4.450;2023-04-03T01:50:46;2.63;;;2.61;;
70450;SDS011;58869;51.982;4.450;2023-04-03T01:53:11;2.67;;;2.65;;
70450;SDS011;58869;51.982;4.450;2023-04-03T01:55:37;2.62;;;2.61;;
70450;SDS011;58869;51.982;4.450;2023-04-03T01:58:02;2.68;;;2.67;;
70450;SDS011;58869;51.982;4.450;2023-04-03T02:00:28;2.61;;;2.61;;
70450;SDS011;58869;51.982;4.450;2023-04-03T02:02:53;2.44;;;2.43;;
70450;SDS011;58869;51.982;4.450;2023-04-03T02:05:18;2.70;;;2.69;;
70450;SDS011;58869;51.982;4.450;2023-04-03T02:07:44;2.67;;;2.66;;
70450;SDS011;58869;51.982;4.450;2023-04-03T02:10:10;2.79;;;2.78;;
70450;SDS011;58869;51.982;4.450;2023-04-03T02:12:36;2.63;;;2.61;;
70450;SDS011;58869;51.982;4.450;2023-04-03T02:15:02;2.55;;;2.54;;
70450;SDS011;58869;51.982;4.450;2023-04-03T02:17:27;2.84;;;2.83;;
70450;SDS011;58869;51.982;4.450;2023-04-03T02:19:56;2.63;;;2.62;;
70450;SDS011;58869;51.982;4.450;2023-04-03T02:22:21;2.52;;;2.52;;
70450;SDS011;58869;51.982;4.450;2023-04-03T02:24:47;2.66;;;2.65;;
70450;SDS011;58869;51.982;4.450;2023-04-03T02:27:12;2.42;;;2.41;;
70450;SDS011;58869;51.982;4.450;2023-04-03T02:29:38;2.73;;;2.73;;
70450;SDS011;58869;51.982;4.450;2023-04-03T02:32:07;2.79;;;2.78;;
70450;SDS011;58869;51.982;4.450;2023-04-03T02:34:35;2.50;;;2.49;;
70450;SDS011;58869;51.982;4.450;2023-04-03T02:37:01;2.76;;;2.75;;
70450;SDS011;58869;51.982;4.450;2023-04-03T02:39:27;2.58;;;2.56;;
70450;SDS011;58869;51.982;4.450;2023-04-03T02:41:52;2.82;;;2.81;;
70450;SDS011;58869;51.982;4.450;2023-04-03T02:44:18;2.90;;;2.89;;
70450;SDS011;58869;51.982;4.450;2023-04-03T02:46:43;2.67;;;2.65;;
70450;SDS011;58869;51.982;4.450;2023-04-03T02:49:09;2.79;;;2.77;;
70450;SDS011;58869;51.982;4.450;2023-04-03T02:51:34;2.90;;;2.90;;
70450;SDS011;58869;51.982;4.450;2023-04-03T02:54:00;2.79;;;2.78;;
70450;SDS011;58869;51.982;4.450;2023-04-03T02:56:26;2.64;;;2.63;;
70450;SDS011;58869;51.982;4.450;2023-04-03T02:58:52;2.81;;;2.81;;
70450;SDS011;58869;51.982;4.450;2023-04-03T03:01:18;2.80;;;2.80;;
70450;SDS011;58869;51.982;4.450;2023-04-03T03:03:43;2.83;;;2.83;;
70450;SDS011;58869;51.982;4.450;2023-04-03T03:06:10;2.99;;;2.99;;
70450;SDS011;58869;51.982;4.450;2023-04-03T03:08:38;2.71;;;2.71;;
70450;SDS011;58869;51.982;4.450;2023-04-03T03:11:04;3.11;;;3.11;;
70450;SDS011;58869;51.982;4.450;2023-04-03T03:13:30;2.94;;;2.92;;
70450;SDS011;58869;51.982;4.450;2023-04-03T03:15:56;2.78;;;2.77;;
70450;SDS011;58869;51.982;4.450;2023-04-03T03:18:22;2.94;;;2.93;;
70450;SDS011;58869;51.982;4.450;2023-04-03T03:20:54;3.05;;;3.03;;
70450;SDS011;58869;51.982;4.450;2023-04-03T03:23:22;2.84;;;2.83;;
70450;SDS011;58869;51.982;4.450;2023-04-03T03:25:53;2.92;;;2.92;;
70450;SDS011;58869;51.982;4.450;2023-04-03T03:28:20;2.96;;;2.96;;
70450;SDS011;58869;51.982;4.450;2023-04-03T03:30:46;3.01;;;3.01;;
70450;SDS011;58869;51.982;4.450;2023-04-03T03:33:11;3.06;;;3.05;;
70450;SDS011;58869;51.982;4.450;2023-04-03T03:35:37;3.04;;;3.03;;
70450;SDS011;58869;51.982;4.450;2023-04-03T03:38:02;2.91;;;2.89;;
70450;SDS011;58869;51.982;4.450;2023-04-03T03:40:28;3.18;;;3.15;;
70450;SDS011;58869;51.982;4.450;2023-04-03T03:42:53;3.30;;;3.26;;
70450;SDS011;58869;51.982;4.450;2023-04-03T03:45:19;3.09;;;3.07;;
70450;SDS011;58869;51.982;4.450;2023-04-03T03:47:44;3.14;;;3.12;;
70450;SDS011;58869;51.982;4.450;2023-04-03T03:50:10;3.19;;;3.17;;
70450;SDS011;58869;51.982;4.450;2023-04-03T03:52:36;3.36;;;3.34;;
70450;SDS011;58869;51.982;4.450;2023-04-03T03:55:01;3.31;;;3.28;;
70450;SDS011;58869;51.982;4.450;2023-04-03T03:57:27;3.18;;;3.16;;
70450;SDS011;58869;51.982;4.450;2023-04-03T03:59:53;3.55;;;3.53;;
70450;SDS011;58869;51.982;4.450;2023-04-03T04:02:19;3.32;;;3.30;;
70450;SDS011;58869;51.982;4.450;2023-04-03T04:04:45;3.29;;;3.28;;
70450;SDS011;58869;51.982;4.450;2023-04-03T04:07:11;3.32;;;3.32;;
70450;SDS011;58869;51.982;4.450;2023-04-03T04:09:36;3.25;;;3.24;;
70450;SDS011;58869;51.982;4.450;2023-04-03T04:12:02;3.25;;;3.23;;
70450;SDS011;58869;51.982;4.450;2023-04-03T04:14:27;3.15;;;3.14;;
70450;SDS011;58869;51.982;4.450;2023-04-03T04:16:53;3.22;;;3.19;;
70450;SDS011;58869;51.982;4.450;2023-04-03T04:19:18;3.41;;;3.38;;
70450;SDS011;58869;51.982;4.450;2023-04-03T04:21:43;3.26;;;3.24;;
70450;SDS011;58869;51.982;4.450;2023-04-03T04:24:09;3.36;;;3.35;;
70450;SDS011;58869;51.982;4.450;2023-04-03T04:26:34;3.42;;;3.42;;
70450;SDS011;58869;51.982;4.450;2023-04-03T04:29:00;3.49;;;3.49;;
70450;SDS011;58869;51.982;4.450;2023-04-03T04:31:26;3.57;;;3.54;;
70450;SDS011;58869;51.982;4.450;2023-04-03T04:33:52;3.56;;;3.54;;
70450;SDS011;58869;51.982;4.450;2023-04-03T04:36:18;3.37;;;3.37;;
70450;SDS011;58869;51.982;4.450;2023-04-03T04:38:43;3.65;;;3.64;;
70450;SDS011;58869;51.982;4.450;2023-04-03T04:41:09;3.51;;;3.50;;
70450;SDS011;58869;51.982;4.450;2023-04-03T04:43:34;3.42;;;3.42;;
70450;SDS011;58869;51.982;4.450;2023-04-03T04:46:04;3.63;;;3.63;;
70450;SDS011;58869;51.982;4.450;2023-04-03T04:48:35;3.55;;;3.55;;
70450;SDS011;58869;51.982;4.450;2023-04-03T04:51:02;3.51;;;3.50;;
70450;SDS011;58869;51.982;4.450;2023-04-03T04:53:27;3.46;;;3.46;;
70450;SDS011;58869;51.982;4.450;2023-04-03T04:55:53;3.63;;;3.63;;
70450;SDS011;58869;51.982;4.450;2023-04-03T04:58:18;3.54;;;3.52;;
70450;SDS011;58869;51.982;4.450;2023-04-03T05:00:44;3.65;;;3.63;;
70450;SDS011;58869;51.982;4.450;2023-04-03T05:03:10;4.07;;;4.04;;
70450;SDS011;58869;51.982;4.450;2023-04-03T05:05:36;3.79;;;3.78;;
70450;SDS011;58869;51.982;4.450;2023-04-03T05:08:02;3.85;;;3.83;;
70450;SDS011;58869;51.982;4.450;2023-04-03T05:10:28;4.12;;;4.11;;
70450;SDS011;58869;51.982;4.450;2023-04-03T05:12:54;4.40;;;4.40;;
70450;SDS011;58869;51.982;4.450;2023-04-03T05:15:19;4.16;;;4.14;;
70450;SDS011;58869;51.982;4.450;2023-04-03T05:17:45;3.93;;;3.91;;
70450;SDS011;58869;51.982;4.450;2023-04-03T05:20:10;4.19;;;4.15;;
70450;SDS011;58869;51.982;4.450;2023-04-03T05:22:36;3.80;;;3.77;;
70450;SDS011;58869;51.982;4.450;2023-04-03T05:25:02;3.69;;;3.65;;
70450;SDS011;58869;51.982;4.450;2023-04-03T05:27:27;3.83;;;3.81;;
70450;SDS011;58869;51.982;4.450;2023-04-03T05:29:53;3.82;;;3.80;;
70450;SDS011;58869;51.982;4.450;2023-04-03T05:32:19;4.00;;;4.00;;
70450;SDS011;58869;51.982;4.450;2023-04-03T05:34:45;4.21;;;4.20;;
70450;SDS011;58869;51.982;4.450;2023-04-03T05:37:10;4.00;;;4.00;;
70450;SDS011;58869;51.982;4.450;2023-04-03T05:39:36;4.24;;;4.23;;
70450;SDS011;58869;51.982;4.450;2023-04-03T05:42:03;4.06;;;4.04;;
70450;SDS011;58869;51.982;4.450;2023-04-03T05:44:29;4.11;;;4.11;;
70450;SDS011;58869;51.982;4.450;2023-04-03T05:46:54;3.77;;;3.77;;
70450;SDS011;58869;51.982;4.450;2023-04-03T05:49:20;4.09;;;4.09;;
70450;SDS011;58869;51.982;4.450;2023-04-03T05:51:45;4.35;;;4.35;;
70450;SDS011;58869;51.982;4.450;2023-04-03T05:54:12;4.02;;;4.01;;
70450;SDS011;58869;51.982;4.450;2023-04-03T05:56:43;4.35;;;4.35;;
70450;SDS011;58869;51.982;4.450;2023-04-03T05:59:08;4.19;;;4.17;;
70450;SDS011;58869;51.982;4.450;2023-04-03T06:01:34;4.03;;;4.03;;
70450;SDS011;58869;51.982;4.450;2023-04-03T06:04:00;4.41;;;4.40;;
70450;SDS011;58869;51.982;4.450;2023-04-03T06:06:25;4.21;;;4.20;;
70450;SDS011;58869;51.982;4.450;2023-04-03T06:08:51;4.23;;;4.23;;
70450;SDS011;58869;51.982;4.450;2023-04-03T06:11:16;4.14;;;4.14;;
70450;SDS011;58869;51.982;4.450;2023-04-03T06:13:42;4.25;;;4.24;;
70450;SDS011;58869;51.982;4.450;2023-04-03T06:16:09;4.33;;;4.32;;
70450;SDS011;58869;51.982;4.450;2023-04-03T06:18:37;4.33;;;4.32;;
70450;SDS011;58869;51.982;4.450;2023-04-03T06:21:03;4.34;;;4.33;;
70450;SDS011;58869;51.982;4.450;2023-04-03T06:23:29;4.30;;;4.29;;
70450;SDS011;58869;51.982;4.450;2023-04-03T06:25:55;4.15;;;4.13;;
70450;SDS011;58869;51.982;4.450;2023-04-03T06:28:20;4.34;;;4.32;;
70450;SDS011;58869;51.982;4.450;2023-04-03T06:30:48;4.26;;;4.25;;
70450;SDS011;58869;51.982;4.450;2023-04-03T06:33:14;4.33;;;4.32;;
70450;SDS011;58869;51.982;4.450;2023-04-03T06:35:39;4.16;;;4.12;;
70450;SDS011;58869;51.982;4.450;2023-04-03T06:38:05;4.06;;;4.06;;
70450;SDS011;58869;51.982;4.450;2023-04-03T06:40:34;4.32;;;4.32;;
70450;SDS011;58869;51.982;4.450;2023-04-03T06:43:00;3.93;;;3.92;;
70450;SDS011;58869;51.982;4.450;2023-04-03T06:45:26;4.15;;;4.14;;
70450;SDS011;58869;51.982;4.450;2023-04-03T06:47:52;3.89;;;3.87;;
70450;SDS011;58869;51.982;4.450;2023-04-03T06:50:19;3.87;;;3.83;;
70450;SDS011;58869;51.982;4.450;2023-04-03T06:52:45;3.85;;;3.82;;
70450;SDS011;58869;51.982;4.450;2023-04-03T06:55:10;4.06;;;4.04;;
70450;SDS011;58869;51.982;4.450;2023-04-03T06:57:36;4.08;;;4.05;;
70450;SDS011;58869;51.982;4.450;2023-04-03T07:00:02;4.28;;;4.26;;
70450;SDS011;58869;51.982;4.450;2023-04-03T07:02:29;3.89;;;3.87;;
70450;SDS011;58869;51.982;4.450;2023-04-03T07:04:55;4.04;;;4.04;;
70450;SDS011;58869;51.982;4.450;2023-04-03T07:07:21;3.81;;;3.81;;
70450;SDS011;58869;51.982;4.450;2023-04-03T07:09:47;3.99;;;3.98;;
70450;SDS011;58869;51.982;4.450;2023-04-03T07:12:13;3.88;;;3.86;;
70450;SDS011;58869;51.982;4.450;2023-04-03T07:14:41;3.53;;;3.53;;
70450;SDS011;58869;51.982;4.450;2023-04-03T07:17:07;3.68;;;3.68;;
70450;SDS011;58869;51.982;4.450;2023-04-03T07:19:33;3.81;;;3.81;;
70450;SDS011;58869;51.982;4.450;2023-04-03T07:21:58;3.80;;;3.77;;
70450;SDS011;58869;51.982;4.450;2023-04-03T07:24:24;3.70;;;3.68;;
70450;SDS011;58869;51.982;4.450;2023-04-03T07:26:50;3.71;;;3.69;;
70450;SDS011;58869;51.982;4.450;2023-04-03T07:29:17;3.50;;;3.46;;
70450;SDS011;58869;51.982;4.450;2023-04-03T07:31:43;3.48;;;3.44;;
70450;SDS011;58869;51.982;4.450;2023-04-03T07:34:09;3.56;;;3.54;;
70450;SDS011;58869;51.982;4.450;2023-04-03T07:36:35;3.85;;;3.80;;
70450;SDS011;58869;51.982;4.450;2023-04-03T07:39:01;3.81;;;3.77;;
70450;SDS011;58869;51.982;4.450;2023-04-03T07:41:26;3.66;;;3.62;;
70450;SDS011;58869;51.982;4.450;2023-04-03T07:43:53;3.54;;;3.51;;
70450;SDS011;58869;51.982;4.450;2023-04-03T07:46:20;3.86;;;3.81;;
70450;SDS011;58869;51.982;4.450;2023-04-03T07:48:45;3.54;;;3.49;;
70450;SDS011;58869;51.982;4.450;2023-04-03T07:51:11;3.58;;;3.53;;
70450;SDS011;58869;51.982;4.450;2023-04-03T07:53:38;3.36;;;3.31;;
70450;SDS011;58869;51.982;4.450;2023-04-03T07:56:03;3.39;;;3.36;;
70450;SDS011;58869;51.982;4.450;2023-04-03T07:58:29;3.50;;;3.45;;
70450;SDS011;58869;51.982;4.450;2023-04-03T08:00:55;3.54;;;3.49;;
70450;SDS011;58869;51.982;4.450;2023-04-03T08:03:21;3.44;;;3.36;;
70450;SDS011;58869;51.982;4.450;2023-04-03T08:05:48;3.69;;;3.60;;
70450;SDS011;58869;51.982;4.450;2023-04-03T08:08:18;3.47;;;3.39;;
70450;SDS011;58869;51.982;4.450;2023-04-03T08:10:50;3.14;;;3.08;;
70450;SDS011;58869;51.982;4.450;2023-04-03T08:13:16;3.25;;;3.19;;
70450;SDS011;58869;51.982;4.450;2023-04-03T08:15:41;3.26;;;3.20;;
70450;SDS011;58869;51.982;4.450;2023-04-03T08:18:07;3.36;;;3.32;;
70450;SDS011;58869;51.982;4.450;2023-04-03T08:20:32;3.32;;;3.28;;
70450;SDS011;58869;51.982;4.450;2023-04-03T08:22:58;3.38;;;3.33;;
70450;SDS011;58869;51.982;4.450;2023-04-03T08:25:23;3.14;;;3.11;;
70450;SDS011;58869;51.982;4.450;2023-04-03T08:27:52;3.13;;;3.09;;
70450;SDS011;58869;51.982;4.450;2023-04-03T08:30:17;3.07;;;3.04;;
70450;SDS011;58869;51.982;4.450;2023-04-03T08:32:43;3.15;;;3.12;;
70450;SDS011;58869;51.982;4.450;2023-04-03T08:35:10;3.03;;;2.98;;
70450;SDS011;58869;51.982;4.450;2023-04-03T08:37:37;2.96;;;2.91;;
70450;SDS011;58869;51.982;4.450;2023-04-03T08:40:07;3.09;;;3.06;;
70450;SDS011;58869;51.982;4.450;2023-04-03T08:42:40;3.15;;;3.12;;
70450;SDS011;58869;51.982;4.450;2023-04-03T08:47:45;3.08;;;3.01;;
70450;SDS011;58869;51.982;4.450;2023-04-03T08:50:18;3.15;;;3.01;;
70450;SDS011;58869;51.982;4.450;2023-04-03T08:52:47;3.26;;;3.12;;
70450;SDS011;58869;51.982;4.450;2023-04-03T08:55:26;3.09;;;2.99;;
70450;SDS011;58869;51.982;4.450;2023-04-03T08:58:01;3.12;;;3.03;;
70450;SDS011;58869;51.982;4.450;2023-04-03T09:00:44;3.39;;;3.30;;
70450;SDS011;58869;51.982;4.450;2023-04-03T09:03:12;3.03;;;2.92;;
70450;SDS011;58869;51.982;4.450;2023-04-03T09:10:49;2.71;;;2.63;;
70450;SDS011;58869;51.982;4.450;2023-04-03T09:15:44;2.51;;;2.45;;
70450;SDS011;58869;51.982;4.450;2023-04-03T09:23:42;2.39;;;2.34;;
70450;SDS011;58869;51.982;4.450;2023-04-03T09:26:14;2.16;;;2.10;;
70450;SDS011;58869;51.982;4.450;2023-04-03T09:28:50;2.22;;;2.15;;
70450;SDS011;58869;51.982;4.450;2023-04-03T09:31:19;2.09;;;2.04;;
70450;SDS011;58869;51.982;4.450;2023-04-03T09:33:48;2.05;;;2.00;;
70450;SDS011;58869;51.982;4.450;2023-04-03T09:39:07;2.00;;;1.96;;
70450;SDS011;58869;51.982;4.450;2023-04-03T09:41:36;2.08;;;2.05;;
70450;SDS011;58869;51.982;4.450;2023-04-03T09:44:01;1.64;;;1.61;;
70450;SDS011;58869;51.982;4.450;2023-04-03T09:46:31;1.71;;;1.67;;
70450;SDS011;58869;51.982;4.450;2023-04-03T09:48:59;1.76;;;1.70;;
70450;SDS011;58869;51.982;4.450;2023-04-03T09:51:29;1.92;;;1.87;;
70450;SDS011;58869;51.982;4.450;2023-04-03T09:53:56;1.66;;;1.61;;
70450;SDS011;58869;51.982;4.450;2023-04-03T09:56:23;1.63;;;1.58;;
70450;SDS011;58869;51.982;4.450;2023-04-03T10:04:07;1.68;;;1.64;;
70450;SDS011;58869;51.982;4.450;2023-04-03T10:06:42;1.53;;;1.50;;
70450;SDS011;58869;51.982;4.450;2023-04-03T10:14:30;1.84;;;1.81;;
70450;SDS011;58869;51.982;4.450;2023-04-03T10:19:37;1.60;;;1.57;;
70450;SDS011;58869;51.982;4.450;2023-04-03T10:22:18;1.60;;;1.58;;
70450;SDS011;58869;51.982;4.450;2023-04-03T10:24:59;1.77;;;1.74;;
70450;SDS011;58869;51.982;4.450;2023-04-03T10:28:02;1.60;;;1.57;;
70450;SDS011;58869;51.982;4.450;2023-04-03T10:30:48;1.66;;;1.63;;
70450;SDS011;58869;51.982;4.450;2023-04-03T10:39:46;1.55;;;1.52;;
70450;SDS011;58869;51.982;4.450;2023-04-03T10:42:25;1.54;;;1.51;;
70450;SDS011;58869;51.982;4.450;2023-04-03T10:50:35;1.42;;;1.40;;
70450;SDS011;58869;51.982;4.450;2023-04-03T10:58:26;1.32;;;1.29;;
70450;SDS011;58869;51.982;4.450;2023-04-03T11:00:59;1.26;;;1.22;;
70450;SDS011;58869;51.982;4.450;2023-04-03T11:03:42;1.39;;;1.34;;
70450;SDS011;58869;51.982;4.450;2023-04-03T11:06:12;1.28;;;1.25;;
70450;SDS011;58869;51.982;4.450;2023-04-03T11:11:20;1.29;;;1.27;;
70450;SDS011;58869;51.982;4.450;2023-04-03T11:14:00;1.42;;;1.40;;
70450;SDS011;58869;51.982;4.450;2023-04-03T11:16:48;1.40;;;1.38;;
70450;SDS011;58869;51.982;4.450;2023-04-03T11:19:31;1.48;;;1.45;;
70450;SDS011;58869;51.982;4.450;2023-04-03T11:27:45;1.26;;;1.23;;
70450;SDS011;58869;51.982;4.450;2023-04-03T11:30:16;1.41;;;1.36;;
70450;SDS011;58869;51.982;4.450;2023-04-03T11:32:59;1.40;;;1.35;;
70450;SDS011;58869;51.982;4.450;2023-04-03T11:35:47;1.24;;;1.21;;
70450;SDS011;58869;51.982;4.450;2023-04-03T11:38:24;1.20;;;1.16;;
70450;SDS011;58869;51.982;4.450;2023-04-03T11:40:55;1.23;;;1.21;;
70450;SDS011;58869;51.982;4.450;2023-04-03T11:43:24;1.20;;;1.18;;
70450;SDS011;58869;51.982;4.450;2023-04-03T11:50:59;1.05;;;1.03;;
70450;SDS011;58869;51.982;4.450;2023-04-03T11:53:47;1.10;;;1.08;;
70450;SDS011;58869;51.982;4.450;2023-04-03T11:56:34;0.90;;;0.88;;
70450;SDS011;58869;51.982;4.450;2023-04-03T12:04:12;0.87;;;0.83;;
70450;SDS011;58869;51.982;4.450;2023-04-03T12:12:01;0.74;;;0.72;;
70450;SDS011;58869;51.982;4.450;2023-04-03T12:14:47;0.83;;;0.81;;
70450;SDS011;58869;51.982;4.450;2023-04-03T12:17:19;0.92;;;0.90;;
70450;SDS011;58869;51.982;4.450;2023-04-03T12:19:48;0.99;;;0.96;;
70450;SDS011;58869;51.982;4.450;2023-04-03T12:22:15;0.99;;;0.97;;
70450;SDS011;58869;51.982;4.450;2023-04-03T12:24:43;1.03;;;1.01;;
70450;SDS011;58869;51.982;4.450;2023-04-03T12:29:51;1.00;;;0.98;;
70450;SDS011;58869;51.982;4.450;2023-04-03T12:35:37;0.94;;;0.92;;
70450;SDS011;58869;51.982;4.450;2023-04-03T12:38:19;1.43;;;1.39;;
70450;SDS011;58869;51.982;4.450;2023-04-03T12:41:18;1.06;;;1.03;;
70450;SDS011;58869;51.982;4.450;2023-04-03T12:44:18;1.30;;;1.26;;
70450;SDS011;58869;51.982;4.450;2023-04-03T12:46:53;1.21;;;1.17;;
70450;SDS011;58869;51.982;4.450;2023-04-03T12:49:26;1.27;;;1.23;;
70450;SDS011;58869;51.982;4.450;2023-04-03T12:52:01;1.11;;;1.08;;
70450;SDS011;58869;51.982;4.450;2023-04-03T12:54:32;1.17;;;1.15;;
70450;SDS011;58869;51.982;4.450;2023-04-03T12:57:17;1.54;;;1.51;;
70450;SDS011;58869;51.982;4.450;2023-04-03T12:59:45;1.57;;;1.53;;
70450;SDS011;58869;51.982;4.450;2023-04-03T13:02:30;1.57;;;1.52;;
70450;SDS011;58869;51.982;4.450;2023-04-03T13:04:59;1.54;;;1.51;;
70450;SDS011;58869;51.982;4.450;2023-04-03T13:07:36;1.56;;;1.53;;
70450;SDS011;58869;51.982;4.450;2023-04-03T13:12:33;1.53;;;1.51;;
70450;SDS011;58869;51.982;4.450;2023-04-03T13:15:11;1.43;;;1.42;;
70450;SDS011;58869;51.982;4.450;2023-04-03T13:17:39;1.61;;;1.58;;
70450;SDS011;58869;51.982;4.450;2023-04-03T13:20:26;1.68;;;1.64;;
70450;SDS011;58869;51.982;4.450;2023-04-03T13:23:01;1.55;;;1.52;;
70450;SDS011;58869;51.982;4.450;2023-04-03T13:25:34;1.76;;;1.73;;
70450;SDS011;58869;51.982;4.450;2023-04-03T13:28:02;1.60;;;1.57;;
70450;SDS011;58869;51.982;4.450;2023-04-03T13:30:31;1.61;;;1.59;;
70450;SDS011;58869;51.982;4.450;2023-04-03T13:33:00;1.66;;;1.64;;
70450;SDS011;58869;51.982;4.450;2023-04-03T13:38:00;1.78;;;1.77;;
70450;SDS011;58869;51.982;4.450;2023-04-03T13:40:32;1.78;;;1.77;;
70450;SDS011;58869;51.982;4.450;2023-04-03T13:43:03;1.71;;;1.70;;
70450;SDS011;58869;51.982;4.450;2023-04-03T13:45:39;1.86;;;1.85;;
70450;SDS011;58869;51.982;4.450;2023-04-03T13:50:49;1.74;;;1.72;;
70450;SDS011;58869;51.982;4.450;2023-04-03T13:53:16;1.81;;;1.79;;
70450;SDS011;58869;51.982;4.450;2023-04-03T13:56:42;1.78;;;1.76;;
70450;SDS011;58869;51.982;4.450;2023-04-03T14:01:23;1.76;;;1.75;;
70450;SDS011;58869;51.982;4.450;2023-04-03T14:04:00;1.76;;;1.75;;
70450;SDS011;58869;51.982;4.450;2023-04-03T14:06:36;1.74;;;1.73;;
70450;SDS011;58869;51.982;4.450;2023-04-03T14:09:02;1.82;;;1.81;;
70450;SDS011;58869;51.982;4.450;2023-04-03T14:11:29;1.83;;;1.82;;
70450;SDS011;58869;51.982;4.450;2023-04-03T14:13:58;1.85;;;1.84;;
70450;SDS011;58869;51.982;4.450;2023-04-03T14:16:30;1.92;;;1.91;;
70450;SDS011;58869;51.982;4.450;2023-04-03T14:18:58;1.77;;;1.76;;
70450;SDS011;58869;51.982;4.450;2023-04-03T14:21:23;2.04;;;2.01;;
70450;SDS011;58869;51.982;4.450;2023-04-03T14:23:49;1.70;;;1.68;;
70450;SDS011;58869;51.982;4.450;2023-04-03T14:26:22;1.93;;;1.90;;
70450;SDS011;58869;51.982;4.450;2023-04-03T14:28:50;1.89;;;1.87;;
70450;SDS011;58869;51.982;4.450;2023-04-03T14:31:18;1.76;;;1.74;;
70450;SDS011;58869;51.982;4.450;2023-04-03T14:33:44;1.78;;;1.76;;
70450;SDS011;58869;51.982;4.450;2023-04-03T14:38:40;1.86;;;1.84;;
70450;SDS011;58869;51.982;4.450;2023-04-03T14:41:06;1.99;;;1.98;;
70450;SDS011;58869;51.982;4.450;2023-04-03T14:43:32;2.11;;;2.09;;
70450;SDS011;58869;51.982;4.450;2023-04-03T14:45:58;1.94;;;1.93;;
70450;SDS011;58869;51.982;4.450;2023-04-03T14:48:24;1.90;;;1.88;;
70450;SDS011;58869;51.982;4.450;2023-04-03T14:50:52;1.90;;;1.87;;
70450;SDS011;58869;51.982;4.450;2023-04-03T14:53:18;1.91;;;1.90;;
70450;SDS011;58869;51.982;4.450;2023-04-03T14:55:47;1.95;;;1.93;;
70450;SDS011;58869;51.982;4.450;2023-04-03T14:58:15;1.80;;;1.79;;
70450;SDS011;58869;51.982;4.450;2023-04-03T15:00:42;1.81;;;1.80;;
70450;SDS011;58869;51.982;4.450;2023-04-03T15:03:12;1.82;;;1.80;;
70450;SDS011;58869;51.982;4.450;2023-04-03T15:05:40;2.00;;;1.97;;
70450;SDS011;58869;51.982;4.450;2023-04-03T15:08:08;1.91;;;1.89;;
70450;SDS011;58869;51.982;4.450;2023-04-03T15:10:51;1.93;;;1.91;;
70450;SDS011;58869;51.982;4.450;2023-04-03T15:13:18;2.09;;;2.07;;
70450;SDS011;58869;51.982;4.450;2023-04-03T15:15:44;1.85;;;1.83;;
70450;SDS011;58869;51.982;4.450;2023-04-03T15:18:11;1.97;;;1.96;;
70450;SDS011;58869;51.982;4.450;2023-04-03T15:20:41;2.11;;;2.08;;
70450;SDS011;58869;51.982;4.450;2023-04-03T15:23:08;2.15;;;2.12;;
70450;SDS011;58869;51.982;4.450;2023-04-03T15:25:36;2.13;;;2.11;;
70450;SDS011;58869;51.982;4.450;2023-04-03T15:28:01;2.04;;;2.02;;
70450;SDS011;58869;51.982;4.450;2023-04-03T15:30:27;2.04;;;2.02;;
70450;SDS011;58869;51.982;4.450;2023-04-03T15:32:53;1.88;;;1.87;;
70450;SDS011;58869;51.982;4.450;2023-04-03T15:35:18;1.82;;;1.81;;
70450;SDS011;58869;51.982;4.450;2023-04-03T15:37:44;1.90;;;1.90;;
70450;SDS011;58869;51.982;4.450;2023-04-03T15:40:09;2.00;;;2.00;;
70450;SDS011;58869;51.982;4.450;2023-04-03T15:42:35;1.78;;;1.78;;
70450;SDS011;58869;51.982;4.450;2023-04-03T15:45:01;2.12;;;2.11;;
70450;SDS011;58869;51.982;4.450;2023-04-03T15:47:27;2.10;;;2.07;;
70450;SDS011;58869;51.982;4.450;2023-04-03T15:49:53;1.98;;;1.95;;
70450;SDS011;58869;51.982;4.450;2023-04-03T15:52:20;2.06;;;2.03;;
70450;SDS011;58869;51.982;4.450;2023-04-03T15:54:45;2.03;;;2.01;;
70450;SDS011;58869;51.982;4.450;2023-04-03T15:57:11;2.18;;;2.14;;
70450;SDS011;58869;51.982;4.450;2023-04-03T15:59:36;2.21;;;2.17;;
70450;SDS011;58869;51.982;4.450;2023-04-03T16:02:02;2.05;;;2.03;;
70450;SDS011;58869;51.982;4.450;2023-04-03T16:04:30;2.01;;;1.98;;
70450;SDS011;58869;51.982;4.450;2023-04-03T16:06:56;2.09;;;2.08;;
70450;SDS011;58869;51.982;4.450;2023-04-03T16:09:22;1.96;;;1.95;;
70450;SDS011;58869;51.982;4.450;2023-04-03T16:11:47;2.21;;;2.21;;
70450;SDS011;58869;51.982;4.450;2023-04-03T16:14:13;2.09;;;2.07;;
70450;SDS011;58869;51.982;4.450;2023-04-03T16:16:38;2.23;;;2.20;;
70450;SDS011;58869;51.982;4.450;2023-04-03T16:19:04;2.54;;;2.48;;
70450;SDS011;58869;51.982;4.450;2023-04-03T16:21:31;2.21;;;2.16;;
70450;SDS011;58869;51.982;4.450;2023-04-03T16:24:00;2.07;;;2.03;;
70450;SDS011;58869;51.982;4.450;2023-04-03T16:26:26;2.17;;;2.12;;
70450;SDS011;58869;51.982;4.450;2023-04-03T16:28:52;2.14;;;2.10;;
70450;SDS011;58869;51.982;4.450;2023-04-03T16:31:18;1.99;;;1.97;;
70450;SDS011;58869;51.982;4.450;2023-04-03T16:33:45;2.21;;;2.19;;
70450;SDS011;58869;51.982;4.450;2023-04-03T16:36:10;2.29;;;2.26;;
70450;SDS011;58869;51.982;4.450;2023-04-03T16:38:36;2.22;;;2.21;;
70450;SDS011;58869;51.982;4.450;2023-04-03T16:41:01;2.23;;;2.21;;